sensor_id;sensor_type;location;lat;lon;timestamp;P1;durP1;ratioP1;P2;durP2;ratioP2
83646;SDS011;73609;50.134;14.376;2023-12-14T00:00:05;27.8;;;18.6;;
83646;SDS011;73609;50.134;14.376;2023-12-14T00:02:05;27.6;;;18.6;;
83646;SDS011;73609;50.134;14.376;2023-12-14T00:04:05;27.8;;;17.8;;
83646;SDS011;73609;50.134;14.376;2023-12-14T00:06:05;24.6;;;17.1;;
83646;SDS011;73609;50.134;14.376;2023-12-14T00:08:05;24.9;;;16.3;;
83646;SDS011;73609;50.134;14.376;2023-12-14T00:10:05;27.2;;;17.5;;
83646;SDS011;73609;50.134;14.376;2023-12-14T00:12:05;25.1;;;16.1;;
83646;SDS011;73609;50.134;14.376;2023-12-14T00:14:05;27.0;;;18.0;;
83646;SDS011;73609;50.134;14.376;2023-12-14T00:16:05;31.1;;;18.9;;
83646;SDS011;73609;50.134;14.376;2023-12-14T00:18:05;29.5;;;18.8;;
83646;SDS011;73609;50.134;14.376;2023-12-14T00:20:05;30.6;;;18.8;;
83646;SDS011;73609;50.134;14.376;2023-12-14T00:22:05;34.2;;;19.9;;
83646;SDS011;73609;50.134;14.376;2023-12-14T00:24:05;33.9;;;19.6;;
83646;SDS011;73609;50.134;14.376;2023-12-14T00:26:05;35.9;;;20.0;;
83646;SDS011;73609;50.134;14.376;2023-12-14T00:28:05;39.1;;;20.9;;
83646;SDS011;73609;50.134;14.376;2023-12-14T00:30:05;35.8;;;20.6;;
83646;SDS011;73609;50.134;14.376;2023-12-14T00:32:05;36.2;;;20.4;;
83646;SDS011;73609;50.134;14.376;2023-12-14T00:34:05;36.7;;;20.2;;
83646;SDS011;73609;50.134;14.376;2023-12-14T00:36:05;39.4;;;21.3;;
83646;SDS011;73609;50.134;14.376;2023-12-14T00:38:05;35.8;;;20.4;;
83646;SDS011;73609;50.134;14.376;2023-12-14T00:40:05;37.4;;;20.3;;
83646;SDS011;73609;50.134;14.376;2023-12-14T00:42:05;39.4;;;21.4;;
83646;SDS011;73609;50.134;14.376;2023-12-14T00:44:05;36.7;;;19.8;;
83646;SDS011;73609;50.134;14.376;2023-12-14T00:46:05;37.1;;;20.8;;
83646;SDS011;73609;50.134;14.376;2023-12-14T00:48:05;36.2;;;19.2;;
83646;SDS011;73609;50.134;14.376;2023-12-14T00:50:05;41.7;;;21.2;;
83646;SDS011;73609;50.134;14.376;2023-12-14T00:52:05;46.0;;;21.8;;
83646;SDS011;73609;50.134;14.376;2023-12-14T00:54:05;38.9;;;20.9;;
83646;SDS011;73609;50.134;14.376;2023-12-14T00:56:06;39.3;;;20.0;;
83646;SDS011;73609;50.134;14.376;2023-12-14T00:58:05;38.7;;;21.1;;
83646;SDS011;73609;50.134;14.376;2023-12-14T01:00:05;36.9;;;19.4;;
83646;SDS011;73609;50.134;14.376;2023-12-14T01:04:05;36.6;;;19.0;;
83646;SDS011;73609;50.134;14.376;2023-12-14T01:06:05;34.4;;;19.1;;
83646;SDS011;73609;50.134;14.376;2023-12-14T01:08:05;35.1;;;18.5;;
83646;SDS011;73609;50.134;14.376;2023-12-14T01:10:05;35.1;;;18.9;;
83646;SDS011;73609;50.134;14.376;2023-12-14T01:12:05;32.9;;;18.1;;
83646;SDS011;73609;50.134;14.376;2023-12-14T01:14:05;37.2;;;18.8;;
83646;SDS011;73609;50.134;14.376;2023-12-14T01:16:05;36.9;;;18.6;;
83646;SDS011;73609;50.134;14.376;2023-12-14T01:18:05;38.5;;;18.3;;
83646;SDS011;73609;50.134;14.376;2023-12-14T01:20:06;37.1;;;19.4;;
83646;SDS011;73609;50.134;14.376;2023-12-14T01:22:05;38.1;;;18.6;;
83646;SDS011;73609;50.134;14.376;2023-12-14T01:24:05;31.0;;;17.1;;
83646;SDS011;73609;50.134;14.376;2023-12-14T01:26:05;37.2;;;19.5;;
83646;SDS011;73609;50.134;14.376;2023-12-14T01:28:05;35.1;;;17.9;;
83646;SDS011;73609;50.134;14.376;2023-12-14T01:30:05;37.1;;;17.7;;
83646;SDS011;73609;50.134;14.376;2023-12-14T01:32:05;35.5;;;17.6;;
83646;SDS011;73609;50.134;14.376;2023-12-14T01:34:05;33.9;;;17.2;;
83646;SDS011;73609;50.134;14.376;2023-12-14T01:36:05;33.6;;;16.9;;
83646;SDS011;73609;50.134;14.376;2023-12-14T01:38:05;30.8;;;15.0;;
83646;SDS011;73609;50.134;14.376;2023-12-14T01:40:05;33.9;;;15.2;;
83646;SDS011;73609;50.134;14.376;2023-12-14T01:42:05;33.8;;;15.3;;
83646;SDS011;73609;50.134;14.376;2023-12-14T01:44:05;36.3;;;16.0;;
83646;SDS011;73609;50.134;14.376;2023-12-14T01:46:05;32.3;;;15.4;;
83646;SDS011;73609;50.134;14.376;2023-12-14T01:48:05;38.5;;;16.0;;
83646;SDS011;73609;50.134;14.376;2023-12-14T01:50:05;29.6;;;13.9;;
83646;SDS011;73609;50.134;14.376;2023-12-14T01:52:05;43.4;;;14.6;;
83646;SDS011;73609;50.134;14.376;2023-12-14T01:54:05;31.0;;;14.0;;
83646;SDS011;73609;50.134;14.376;2023-12-14T01:56:05;31.2;;;14.9;;
83646;SDS011;73609;50.134;14.376;2023-12-14T01:58:05;41.5;;;15.1;;
83646;SDS011;73609;50.134;14.376;2023-12-14T02:00:05;33.9;;;14.6;;
83646;SDS011;73609;50.134;14.376;2023-12-14T02:02:05;37.4;;;14.6;;
83646;SDS011;73609;50.134;14.376;2023-12-14T02:04:05;49.8;;;14.6;;
83646;SDS011;73609;50.134;14.376;2023-12-14T02:06:05;38.4;;;14.6;;
83646;SDS011;73609;50.134;14.376;2023-12-14T02:08:05;34.5;;;14.1;;
83646;SDS011;73609;50.134;14.376;2023-12-14T02:10:05;34.0;;;14.5;;
83646;SDS011;73609;50.134;14.376;2023-12-14T02:12:05;29.2;;;14.2;;
83646;SDS011;73609;50.134;14.376;2023-12-14T02:14:05;42.9;;;14.3;;
83646;SDS011;73609;50.134;14.376;2023-12-14T02:16:05;38.8;;;15.0;;
83646;SDS011;73609;50.134;14.376;2023-12-14T02:18:05;33.8;;;14.7;;
83646;SDS011;73609;50.134;14.376;2023-12-14T02:20:05;33.2;;;14.5;;
83646;SDS011;73609;50.134;14.376;2023-12-14T02:22:05;34.7;;;15.0;;
83646;SDS011;73609;50.134;14.376;2023-12-14T02:24:05;52.3;;;15.2;;
83646;SDS011;73609;50.134;14.376;2023-12-14T02:26:05;44.0;;;16.1;;
83646;SDS011;73609;50.134;14.376;2023-12-14T02:28:05;38.4;;;15.4;;
83646;SDS011;73609;50.134;14.376;2023-12-14T02:30:05;42.4;;;14.1;;
83646;SDS011;73609;50.134;14.376;2023-12-14T02:32:05;41.7;;;14.8;;
83646;SDS011;73609;50.134;14.376;2023-12-14T02:34:05;39.2;;;15.0;;
83646;SDS011;73609;50.134;14.376;2023-12-14T02:36:05;35.0;;;14.7;;
83646;SDS011;73609;50.134;14.376;2023-12-14T02:38:05;37.0;;;15.1;;
83646;SDS011;73609;50.134;14.376;2023-12-14T02:40:05;38.3;;;14.7;;
83646;SDS011;73609;50.134;14.376;2023-12-14T02:42:05;41.0;;;14.5;;
83646;SDS011;73609;50.134;14.376;2023-12-14T02:44:05;30.8;;;14.3;;
83646;SDS011;73609;50.134;14.376;2023-12-14T02:46:05;31.1;;;13.9;;
83646;SDS011;73609;50.134;14.376;2023-12-14T02:48:05;39.8;;;14.8;;
83646;SDS011;73609;50.134;14.376;2023-12-14T02:50:05;41.8;;;15.5;;
83646;SDS011;73609;50.134;14.376;2023-12-14T02:52:05;38.5;;;15.1;;
83646;SDS011;73609;50.134;14.376;2023-12-14T02:54:05;39.5;;;14.5;;
83646;SDS011;73609;50.134;14.376;2023-12-14T02:56:05;39.0;;;15.0;;
83646;SDS011;73609;50.134;14.376;2023-12-14T02:58:05;51.8;;;15.1;;
83646;SDS011;73609;50.134;14.376;2023-12-14T03:00:05;41.7;;;15.0;;
83646;SDS011;73609;50.134;14.376;2023-12-14T03:02:05;41.1;;;15.1;;
83646;SDS011;73609;50.134;14.376;2023-12-14T03:04:06;39.6;;;16.1;;
83646;SDS011;73609;50.134;14.376;2023-12-14T03:06:05;34.2;;;14.8;;
83646;SDS011;73609;50.134;14.376;2023-12-14T03:08:05;39.0;;;15.2;;
83646;SDS011;73609;50.134;14.376;2023-12-14T03:10:05;39.2;;;16.1;;
83646;SDS011;73609;50.134;14.376;2023-12-14T03:12:05;36.2;;;15.5;;
83646;SDS011;73609;50.134;14.376;2023-12-14T03:14:05;33.3;;;14.4;;
83646;SDS011;73609;50.134;14.376;2023-12-14T03:16:05;41.7;;;15.1;;
83646;SDS011;73609;50.134;14.376;2023-12-14T03:18:05;33.0;;;14.6;;
83646;SDS011;73609;50.134;14.376;2023-12-14T03:20:05;31.2;;;14.2;;
83646;SDS011;73609;50.134;14.376;2023-12-14T03:22:05;35.2;;;15.7;;
83646;SDS011;73609;50.134;14.376;2023-12-14T03:24:05;29.2;;;13.6;;
83646;SDS011;73609;50.134;14.376;2023-12-14T03:26:05;26.1;;;12.6;;
83646;SDS011;73609;50.134;14.376;2023-12-14T03:28:05;26.3;;;12.8;;
83646;SDS011;73609;50.134;14.376;2023-12-14T03:30:05;37.1;;;15.2;;
83646;SDS011;73609;50.134;14.376;2023-12-14T03:32:05;32.3;;;15.3;;
83646;SDS011;73609;50.134;14.376;2023-12-14T03:34:05;33.6;;;15.7;;
83646;SDS011;73609;50.134;14.376;2023-12-14T03:36:05;46.7;;;16.3;;
83646;SDS011;73609;50.134;14.376;2023-12-14T03:38:05;40.0;;;16.4;;
83646;SDS011;73609;50.134;14.376;2023-12-14T03:40:05;37.5;;;15.9;;
83646;SDS011;73609;50.134;14.376;2023-12-14T03:42:05;45.5;;;16.0;;
83646;SDS011;73609;50.134;14.376;2023-12-14T03:44:05;36.4;;;16.1;;
83646;SDS011;73609;50.134;14.376;2023-12-14T03:46:05;38.8;;;16.1;;
83646;SDS011;73609;50.134;14.376;2023-12-14T03:48:05;40.7;;;16.3;;
83646;SDS011;73609;50.134;14.376;2023-12-14T03:50:05;37.6;;;14.8;;
83646;SDS011;73609;50.134;14.376;2023-12-14T03:52:05;41.1;;;16.0;;
83646;SDS011;73609;50.134;14.376;2023-12-14T03:54:05;45.0;;;16.0;;
83646;SDS011;73609;50.134;14.376;2023-12-14T03:56:05;51.6;;;15.2;;
83646;SDS011;73609;50.134;14.376;2023-12-14T03:58:05;54.2;;;14.8;;
83646;SDS011;73609;50.134;14.376;2023-12-14T04:00:05;48.6;;;14.5;;
83646;SDS011;73609;50.134;14.376;2023-12-14T04:02:05;41.8;;;14.4;;
83646;SDS011;73609;50.134;14.376;2023-12-14T04:04:05;47.9;;;15.4;;
83646;SDS011;73609;50.134;14.376;2023-12-14T04:06:05;48.1;;;14.8;;
83646;SDS011;73609;50.134;14.376;2023-12-14T04:08:05;40.5;;;14.1;;
83646;SDS011;73609;50.134;14.376;2023-12-14T04:10:05;49.0;;;14.8;;
83646;SDS011;73609;50.134;14.376;2023-12-14T04:12:05;40.7;;;14.5;;
83646;SDS011;73609;50.134;14.376;2023-12-14T04:14:05;39.7;;;14.7;;
83646;SDS011;73609;50.134;14.376;2023-12-14T04:16:05;43.2;;;14.8;;
83646;SDS011;73609;50.134;14.376;2023-12-14T04:18:06;43.8;;;14.1;;
83646;SDS011;73609;50.134;14.376;2023-12-14T04:20:05;36.9;;;14.1;;
83646;SDS011;73609;50.134;14.376;2023-12-14T04:22:05;43.6;;;15.0;;
83646;SDS011;73609;50.134;14.376;2023-12-14T04:24:05;48.5;;;14.9;;
83646;SDS011;73609;50.134;14.376;2023-12-14T04:26:05;32.3;;;14.7;;
83646;SDS011;73609;50.134;14.376;2023-12-14T04:28:05;45.7;;;15.3;;
83646;SDS011;73609;50.134;14.376;2023-12-14T04:30:05;44.4;;;13.8;;
83646;SDS011;73609;50.134;14.376;2023-12-14T04:32:05;34.9;;;14.2;;
83646;SDS011;73609;50.134;14.376;2023-12-14T04:34:05;29.0;;;13.9;;
83646;SDS011;73609;50.134;14.376;2023-12-14T04:36:05;30.0;;;13.1;;
83646;SDS011;73609;50.134;14.376;2023-12-14T04:38:05;32.4;;;13.6;;
83646;SDS011;73609;50.134;14.376;2023-12-14T04:40:05;31.0;;;14.0;;
83646;SDS011;73609;50.134;14.376;2023-12-14T04:42:05;31.9;;;13.7;;
83646;SDS011;73609;50.134;14.376;2023-12-14T04:44:05;33.2;;;13.1;;
83646;SDS011;73609;50.134;14.376;2023-12-14T04:46:05;28.4;;;12.4;;
83646;SDS011;73609;50.134;14.376;2023-12-14T04:48:05;24.0;;;12.4;;
83646;SDS011;73609;50.134;14.376;2023-12-14T04:50:05;26.6;;;13.2;;
83646;SDS011;73609;50.134;14.376;2023-12-14T04:52:05;26.6;;;12.6;;
83646;SDS011;73609;50.134;14.376;2023-12-14T04:54:05;24.2;;;12.0;;
83646;SDS011;73609;50.134;14.376;2023-12-14T04:56:05;24.8;;;13.0;;
83646;SDS011;73609;50.134;14.376;2023-12-14T04:58:05;24.9;;;12.9;;
83646;SDS011;73609;50.134;14.376;2023-12-14T05:00:05;24.4;;;12.2;;
83646;SDS011;73609;50.134;14.376;2023-12-14T05:02:05;22.9;;;11.5;;
83646;SDS011;73609;50.134;14.376;2023-12-14T05:04:05;27.0;;;11.9;;
83646;SDS011;73609;50.134;14.376;2023-12-14T05:06:05;24.6;;;13.0;;
83646;SDS011;73609;50.134;14.376;2023-12-14T05:08:05;20.4;;;11.8;;
83646;SDS011;73609;50.134;14.376;2023-12-14T05:10:05;25.4;;;13.3;;
83646;SDS011;73609;50.134;14.376;2023-12-14T05:12:05;20.6;;;12.0;;
83646;SDS011;73609;50.134;14.376;2023-12-14T05:14:05;21.1;;;12.2;;
83646;SDS011;73609;50.134;14.376;2023-12-14T05:16:05;22.7;;;12.3;;
83646;SDS011;73609;50.134;14.376;2023-12-14T05:18:05;19.7;;;11.8;;
83646;SDS011;73609;50.134;14.376;2023-12-14T05:20:07;18.4;;;11.2;;
83646;SDS011;73609;50.134;14.376;2023-12-14T05:22:05;19.0;;;11.4;;
83646;SDS011;73609;50.134;14.376;2023-12-14T05:24:05;18.5;;;10.9;;
83646;SDS011;73609;50.134;14.376;2023-12-14T05:26:05;16.6;;;10.1;;
83646;SDS011;73609;50.134;14.376;2023-12-14T05:28:05;16.4;;;10.6;;
83646;SDS011;73609;50.134;14.376;2023-12-14T05:30:05;15.3;;;9.9;;
83646;SDS011;73609;50.134;14.376;2023-12-14T05:32:05;17.4;;;11.2;;
83646;SDS011;73609;50.134;14.376;2023-12-14T05:34:05;15.1;;;10.1;;
83646;SDS011;73609;50.134;14.376;2023-12-14T05:36:05;17.4;;;10.6;;
83646;SDS011;73609;50.134;14.376;2023-12-14T05:38:05;16.3;;;10.1;;
83646;SDS011;73609;50.134;14.376;2023-12-14T05:40:05;15.8;;;10.1;;
83646;SDS011;73609;50.134;14.376;2023-12-14T05:42:05;17.1;;;10.2;;
83646;SDS011;73609;50.134;14.376;2023-12-14T05:44:05;17.1;;;10.7;;
83646;SDS011;73609;50.134;14.376;2023-12-14T05:46:05;18.5;;;11.5;;
83646;SDS011;73609;50.134;14.376;2023-12-14T05:48:05;21.1;;;12.7;;
83646;SDS011;73609;50.134;14.376;2023-12-14T05:50:05;21.0;;;12.5;;
83646;SDS011;73609;50.134;14.376;2023-12-14T05:52:05;20.9;;;12.7;;
83646;SDS011;73609;50.134;14.376;2023-12-14T05:54:05;21.7;;;13.2;;
83646;SDS011;73609;50.134;14.376;2023-12-14T05:56:05;24.4;;;13.8;;
83646;SDS011;73609;50.134;14.376;2023-12-14T05:58:05;23.4;;;13.5;;
83646;SDS011;73609;50.134;14.376;2023-12-14T06:00:05;21.8;;;13.5;;
83646;SDS011;73609;50.134;14.376;2023-12-14T06:02:05;22.1;;;12.7;;
83646;SDS011;73609;50.134;14.376;2023-12-14T06:04:05;23.6;;;14.1;;
83646;SDS011;73609;50.134;14.376;2023-12-14T06:06:05;22.1;;;13.2;;
83646;SDS011;73609;50.134;14.376;2023-12-14T06:08:05;21.6;;;13.5;;
83646;SDS011;73609;50.134;14.376;2023-12-14T06:10:05;25.3;;;13.9;;
83646;SDS011;73609;50.134;14.376;2023-12-14T06:12:05;23.7;;;13.2;;
83646;SDS011;73609;50.134;14.376;2023-12-14T06:14:05;21.4;;;12.7;;
83646;SDS011;73609;50.134;14.376;2023-12-14T06:16:05;21.6;;;12.7;;
83646;SDS011;73609;50.134;14.376;2023-12-14T06:18:05;19.8;;;12.8;;
83646;SDS011;73609;50.134;14.376;2023-12-14T06:20:06;19.1;;;12.1;;
83646;SDS011;73609;50.134;14.376;2023-12-14T06:22:05;21.4;;;13.5;;
83646;SDS011;73609;50.134;14.376;2023-12-14T06:24:05;22.3;;;14.0;;
83646;SDS011;73609;50.134;14.376;2023-12-14T06:26:05;22.0;;;13.8;;
83646;SDS011;73609;50.134;14.376;2023-12-14T06:28:05;20.9;;;13.9;;
83646;SDS011;73609;50.134;14.376;2023-12-14T06:30:05;20.4;;;13.0;;
83646;SDS011;73609;50.134;14.376;2023-12-14T06:32:05;19.9;;;12.7;;
83646;SDS011;73609;50.134;14.376;2023-12-14T06:34:05;19.9;;;12.7;;
83646;SDS011;73609;50.134;14.376;2023-12-14T06:36:05;21.0;;;13.2;;
83646;SDS011;73609;50.134;14.376;2023-12-14T06:38:05;19.9;;;13.4;;
83646;SDS011;73609;50.134;14.376;2023-12-14T06:40:05;19.1;;;12.7;;
83646;SDS011;73609;50.134;14.376;2023-12-14T06:42:05;20.6;;;13.6;;
83646;SDS011;73609;50.134;14.376;2023-12-14T06:44:05;20.0;;;13.1;;
83646;SDS011;73609;50.134;14.376;2023-12-14T06:46:05;22.7;;;13.7;;
83646;SDS011;73609;50.134;14.376;2023-12-14T06:48:05;20.1;;;13.1;;
83646;SDS011;73609;50.134;14.376;2023-12-14T06:50:05;21.4;;;13.1;;
83646;SDS011;73609;50.134;14.376;2023-12-14T06:52:05;20.2;;;13.1;;
83646;SDS011;73609;50.134;14.376;2023-12-14T06:54:05;21.9;;;14.3;;
83646;SDS011;73609;50.134;14.376;2023-12-14T06:56:05;19.9;;;13.3;;
83646;SDS011;73609;50.134;14.376;2023-12-14T06:58:05;20.1;;;13.5;;
83646;SDS011;73609;50.134;14.376;2023-12-14T07:00:05;25.7;;;16.7;;
83646;SDS011;73609;50.134;14.376;2023-12-14T07:02:05;24.2;;;15.6;;
83646;SDS011;73609;50.134;14.376;2023-12-14T07:04:05;23.6;;;15.2;;
83646;SDS011;73609;50.134;14.376;2023-12-14T07:06:05;23.1;;;15.7;;
83646;SDS011;73609;50.134;14.376;2023-12-14T07:08:05;23.8;;;16.6;;
83646;SDS011;73609;50.134;14.376;2023-12-14T07:10:05;24.7;;;16.7;;
83646;SDS011;73609;50.134;14.376;2023-12-14T07:12:05;24.9;;;16.2;;
83646;SDS011;73609;50.134;14.376;2023-12-14T07:14:05;27.0;;;17.2;;
83646;SDS011;73609;50.134;14.376;2023-12-14T07:16:05;25.6;;;16.6;;
83646;SDS011;73609;50.134;14.376;2023-12-14T07:18:05;21.9;;;15.0;;
83646;SDS011;73609;50.134;14.376;2023-12-14T07:20:05;26.1;;;17.0;;
83646;SDS011;73609;50.134;14.376;2023-12-14T07:22:05;26.5;;;16.6;;
83646;SDS011;73609;50.134;14.376;2023-12-14T07:24:05;23.4;;;14.9;;
83646;SDS011;73609;50.134;14.376;2023-12-14T07:26:05;22.4;;;14.3;;
83646;SDS011;73609;50.134;14.376;2023-12-14T07:28:05;19.6;;;13.6;;
83646;SDS011;73609;50.134;14.376;2023-12-14T07:30:05;20.8;;;12.6;;
83646;SDS011;73609;50.134;14.376;2023-12-14T07:32:05;17.7;;;10.8;;
83646;SDS011;73609;50.134;14.376;2023-12-14T07:34:05;15.9;;;10.6;;
83646;SDS011;73609;50.134;14.376;2023-12-14T07:36:05;15.2;;;10.3;;
83646;SDS011;73609;50.134;14.376;2023-12-14T07:38:05;15.1;;;9.8;;
83646;SDS011;73609;50.134;14.376;2023-12-14T07:40:05;15.9;;;10.5;;
83646;SDS011;73609;50.134;14.376;2023-12-14T07:42:05;16.9;;;10.3;;
83646;SDS011;73609;50.134;14.376;2023-12-14T07:44:05;14.8;;;10.7;;
83646;SDS011;73609;50.134;14.376;2023-12-14T07:46:05;15.8;;;10.9;;
83646;SDS011;73609;50.134;14.376;2023-12-14T07:48:05;15.1;;;10.6;;
83646;SDS011;73609;50.134;14.376;2023-12-14T07:50:05;18.2;;;11.5;;
83646;SDS011;73609;50.134;14.376;2023-12-14T07:52:05;18.9;;;11.7;;
83646;SDS011;73609;50.134;14.376;2023-12-14T07:54:05;20.3;;;11.9;;
83646;SDS011;73609;50.134;14.376;2023-12-14T07:56:05;21.7;;;14.8;;
83646;SDS011;73609;50.134;14.376;2023-12-14T07:58:05;21.7;;;13.6;;
83646;SDS011;73609;50.134;14.376;2023-12-14T08:00:05;20.3;;;12.9;;
83646;SDS011;73609;50.134;14.376;2023-12-14T08:02:05;23.5;;;13.3;;
83646;SDS011;73609;50.134;14.376;2023-12-14T08:04:05;22.5;;;14.0;;
83646;SDS011;73609;50.134;14.376;2023-12-14T08:06:05;21.7;;;13.3;;
83646;SDS011;73609;50.134;14.376;2023-12-14T08:08:05;21.6;;;13.4;;
83646;SDS011;73609;50.134;14.376;2023-12-14T08:10:05;20.6;;;13.3;;
83646;SDS011;73609;50.134;14.376;2023-12-14T08:12:05;18.6;;;11.3;;
83646;SDS011;73609;50.134;14.376;2023-12-14T08:14:05;16.3;;;10.4;;
83646;SDS011;73609;50.134;14.376;2023-12-14T08:16:05;16.2;;;10.1;;
83646;SDS011;73609;50.134;14.376;2023-12-14T08:18:05;16.0;;;9.3;;
83646;SDS011;73609;50.134;14.376;2023-12-14T08:20:05;14.8;;;9.8;;
83646;SDS011;73609;50.134;14.376;2023-12-14T08:22:05;15.5;;;9.2;;
83646;SDS011;73609;50.134;14.376;2023-12-14T08:24:05;15.8;;;9.4;;
83646;SDS011;73609;50.134;14.376;2023-12-14T08:26:05;17.7;;;10.3;;
83646;SDS011;73609;50.134;14.376;2023-12-14T08:28:05;17.9;;;9.7;;
83646;SDS011;73609;50.134;14.376;2023-12-14T08:30:05;16.2;;;9.9;;
83646;SDS011;73609;50.134;14.376;2023-12-14T08:32:05;16.8;;;9.3;;
83646;SDS011;73609;50.134;14.376;2023-12-14T08:34:05;15.4;;;9.2;;
83646;SDS011;73609;50.134;14.376;2023-12-14T08:36:05;15.6;;;9.0;;
83646;SDS011;73609;50.134;14.376;2023-12-14T08:38:05;16.7;;;9.1;;
83646;SDS011;73609;50.134;14.376;2023-12-14T08:40:05;21.5;;;8.6;;
83646;SDS011;73609;50.134;14.376;2023-12-14T08:42:05;28.8;;;10.0;;
83646;SDS011;73609;50.134;14.376;2023-12-14T08:44:05;23.9;;;9.0;;
83646;SDS011;73609;50.134;14.376;2023-12-14T08:46:05;17.4;;;8.8;;
83646;SDS011;73609;50.134;14.376;2023-12-14T08:48:05;18.5;;;9.0;;
83646;SDS011;73609;50.134;14.376;2023-12-14T08:50:05;15.9;;;9.3;;
83646;SDS011;73609;50.134;14.376;2023-12-14T08:52:05;18.9;;;8.8;;
83646;SDS011;73609;50.134;14.376;2023-12-14T08:54:05;16.0;;;8.1;;
83646;SDS011;73609;50.134;14.376;2023-12-14T08:56:05;15.4;;;8.6;;
83646;SDS011;73609;50.134;14.376;2023-12-14T08:58:05;12.3;;;6.9;;
83646;SDS011;73609;50.134;14.376;2023-12-14T09:00:05;14.4;;;7.4;;
83646;SDS011;73609;50.134;14.376;2023-12-14T09:02:05;16.0;;;7.5;;
83646;SDS011;73609;50.134;14.376;2023-12-14T09:04:05;12.7;;;6.9;;
83646;SDS011;73609;50.134;14.376;2023-12-14T09:06:05;16.2;;;7.3;;
83646;SDS011;73609;50.134;14.376;2023-12-14T09:08:05;17.1;;;7.9;;
83646;SDS011;73609;50.134;14.376;2023-12-14T09:10:05;12.4;;;7.2;;
83646;SDS011;73609;50.134;14.376;2023-12-14T09:12:05;12.0;;;7.1;;
83646;SDS011;73609;50.134;14.376;2023-12-14T09:14:05;11.9;;;7.2;;
83646;SDS011;73609;50.134;14.376;2023-12-14T09:16:05;11.5;;;7.3;;
83646;SDS011;73609;50.134;14.376;2023-12-14T09:18:05;10.8;;;6.8;;
83646;SDS011;73609;50.134;14.376;2023-12-14T09:20:05;10.9;;;6.6;;
83646;SDS011;73609;50.134;14.376;2023-12-14T09:22:05;11.9;;;7.1;;
83646;SDS011;73609;50.134;14.376;2023-12-14T09:24:05;12.8;;;6.9;;
83646;SDS011;73609;50.134;14.376;2023-12-14T09:26:05;12.0;;;7.0;;
83646;SDS011;73609;50.134;14.376;2023-12-14T09:28:05;10.5;;;6.7;;
83646;SDS011;73609;50.134;14.376;2023-12-14T09:30:05;10.9;;;6.9;;
83646;SDS011;73609;50.134;14.376;2023-12-14T09:32:06;11.0;;;7.3;;
83646;SDS011;73609;50.134;14.376;2023-12-14T09:34:05;12.0;;;7.6;;
83646;SDS011;73609;50.134;14.376;2023-12-14T09:36:05;12.9;;;7.5;;
83646;SDS011;73609;50.134;14.376;2023-12-14T09:38:06;12.7;;;7.3;;
83646;SDS011;73609;50.134;14.376;2023-12-14T09:40:05;12.3;;;7.3;;
83646;SDS011;73609;50.134;14.376;2023-12-14T09:42:05;12.4;;;7.8;;
83646;SDS011;73609;50.134;14.376;2023-12-14T09:44:05;10.8;;;7.2;;
83646;SDS011;73609;50.134;14.376;2023-12-14T09:46:05;11.3;;;7.2;;
83646;SDS011;73609;50.134;14.376;2023-12-14T09:48:05;12.3;;;7.2;;
83646;SDS011;73609;50.134;14.376;2023-12-14T09:50:05;9.8;;;6.9;;
83646;SDS011;73609;50.134;14.376;2023-12-14T09:52:05;10.2;;;6.8;;
83646;SDS011;73609;50.134;14.376;2023-12-14T09:54:05;9.6;;;7.1;;
83646;SDS011;73609;50.134;14.376;2023-12-14T09:56:05;10.7;;;6.8;;
83646;SDS011;73609;50.134;14.376;2023-12-14T09:58:05;11.1;;;6.5;;
83646;SDS011;73609;50.134;14.376;2023-12-14T10:00:05;9.3;;;6.4;;
83646;SDS011;73609;50.134;14.376;2023-12-14T10:02:08;11.6;;;6.8;;
83646;SDS011;73609;50.134;14.376;2023-12-14T10:04:07;9.6;;;5.9;;
83646;SDS011;73609;50.134;14.376;2023-12-14T10:06:05;9.0;;;5.9;;
83646;SDS011;73609;50.134;14.376;2023-12-14T10:08:05;8.9;;;5.9;;
83646;SDS011;73609;50.134;14.376;2023-12-14T10:10:12;8.6;;;6.1;;
83646;SDS011;73609;50.134;14.376;2023-12-14T10:12:06;8.3;;;5.6;;
83646;SDS011;73609;50.134;14.376;2023-12-14T10:14:35;8.1;;;5.3;;
83646;SDS011;73609;50.134;14.376;2023-12-14T10:16:05;8.7;;;5.7;;
83646;SDS011;73609;50.134;14.376;2023-12-14T10:18:05;8.0;;;5.6;;
83646;SDS011;73609;50.134;14.376;2023-12-14T10:20:05;7.5;;;5.1;;
83646;SDS011;73609;50.134;14.376;2023-12-14T10:22:05;8.5;;;5.4;;
83646;SDS011;73609;50.134;14.376;2023-12-14T10:24:05;8.0;;;5.1;;
83646;SDS011;73609;50.134;14.376;2023-12-14T10:26:05;8.4;;;5.1;;
83646;SDS011;73609;50.134;14.376;2023-12-14T10:28:05;8.7;;;5.3;;
83646;SDS011;73609;50.134;14.376;2023-12-14T10:30:06;10.0;;;5.2;;
83646;SDS011;73609;50.134;14.376;2023-12-14T10:32:05;9.2;;;5.4;;
83646;SDS011;73609;50.134;14.376;2023-12-14T10:34:05;9.6;;;5.2;;
83646;SDS011;73609;50.134;14.376;2023-12-14T10:36:05;8.8;;;5.2;;
83646;SDS011;73609;50.134;14.376;2023-12-14T10:38:05;9.1;;;5.8;;
83646;SDS011;73609;50.134;14.376;2023-12-14T10:40:06;9.0;;;5.9;;
83646;SDS011;73609;50.134;14.376;2023-12-14T10:42:05;8.7;;;5.6;;
83646;SDS011;73609;50.134;14.376;2023-12-14T10:44:05;9.2;;;5.7;;
83646;SDS011;73609;50.134;14.376;2023-12-14T10:46:05;8.7;;;5.6;;
83646;SDS011;73609;50.134;14.376;2023-12-14T10:48:05;8.4;;;5.8;;
83646;SDS011;73609;50.134;14.376;2023-12-14T10:50:05;8.7;;;5.2;;
83646;SDS011;73609;50.134;14.376;2023-12-14T10:52:05;8.3;;;5.0;;
83646;SDS011;73609;50.134;14.376;2023-12-14T10:54:05;6.0;;;4.4;;
83646;SDS011;73609;50.134;14.376;2023-12-14T10:56:05;6.2;;;4.0;;
83646;SDS011;73609;50.134;14.376;2023-12-14T10:58:05;6.6;;;4.1;;
83646;SDS011;73609;50.134;14.376;2023-12-14T11:00:05;5.7;;;3.8;;
83646;SDS011;73609;50.134;14.376;2023-12-14T11:02:08;7.1;;;4.1;;
83646;SDS011;73609;50.134;14.376;2023-12-14T11:04:05;5.3;;;3.8;;
83646;SDS011;73609;50.134;14.376;2023-12-14T11:06:15;5.5;;;3.5;;
83646;SDS011;73609;50.134;14.376;2023-12-14T11:08:05;5.5;;;3.6;;
83646;SDS011;73609;50.134;14.376;2023-12-14T11:10:05;6.2;;;4.1;;
83646;SDS011;73609;50.134;14.376;2023-12-14T11:12:05;7.8;;;4.0;;
83646;SDS011;73609;50.134;14.376;2023-12-14T11:14:05;7.0;;;4.0;;
83646;SDS011;73609;50.134;14.376;2023-12-14T11:16:05;6.4;;;3.8;;
83646;SDS011;73609;50.134;14.376;2023-12-14T11:24:05;5.4;;;3.3;;
83646;SDS011;73609;50.134;14.376;2023-12-14T11:26:05;5.2;;;3.4;;
83646;SDS011;73609;50.134;14.376;2023-12-14T11:28:06;5.6;;;3.5;;
83646;SDS011;73609;50.134;14.376;2023-12-14T11:30:05;5.2;;;3.6;;
83646;SDS011;73609;50.134;14.376;2023-12-14T11:32:06;5.3;;;3.3;;
83646;SDS011;73609;50.134;14.376;2023-12-14T11:34:05;7.2;;;4.8;;
83646;SDS011;73609;50.134;14.376;2023-12-14T11:36:05;6.4;;;3.6;;
83646;SDS011;73609;50.134;14.376;2023-12-14T11:38:05;4.5;;;3.5;;
83646;SDS011;73609;50.134;14.376;2023-12-14T11:40:06;5.4;;;3.2;;
83646;SDS011;73609;50.134;14.376;2023-12-14T11:42:05;5.3;;;3.0;;
83646;SDS011;73609;50.134;14.376;2023-12-14T11:44:05;5.5;;;3.3;;
83646;SDS011;73609;50.134;14.376;2023-12-14T11:46:05;4.6;;;2.7;;
83646;SDS011;73609;50.134;14.376;2023-12-14T11:48:06;4.8;;;3.0;;
83646;SDS011;73609;50.134;14.376;2023-12-14T11:50:06;4.8;;;2.9;;
83646;SDS011;73609;50.134;14.376;2023-12-14T11:52:05;4.0;;;2.6;;
83646;SDS011;73609;50.134;14.376;2023-12-14T11:54:05;4.5;;;2.7;;
83646;SDS011;73609;50.134;14.376;2023-12-14T11:56:05;4.7;;;2.9;;
83646;SDS011;73609;50.134;14.376;2023-12-14T11:58:05;4.3;;;2.8;;
83646;SDS011;73609;50.134;14.376;2023-12-14T12:00:05;5.0;;;2.9;;
83646;SDS011;73609;50.134;14.376;2023-12-14T12:02:05;4.9;;;2.8;;
83646;SDS011;73609;50.134;14.376;2023-12-14T12:04:08;3.8;;;2.5;;